Salt Lake City, Utah
Traffic Map
Current Weather Conditions
Salt Lake City, Utah
Broken Clouds
Broken Clouds
79°
Feels Like: 80°
Wind Chill: 79° Ceiling: 11000
Heat Index: 80° Visibility: 10mi
Dew Point: 57° Wind: 3mph
Humidity: 47% Direction: 120° (ESE)
Pressure: 29.94in Gusts: 0mph
Raw Report DataKSLC 050853Z 12003KT 10SM BKN110 BKN150 26/14 A2994 RMK AO2 SLP069 T02610139 55003
Traffic Incident Summary
Active as of:
Severity:
Category:
InformationThere was an issue retrieving the traffic information for this location. Please try a different location or try again shortly.
Advertisements
Track Severe Weather on mobile